Time;durP1;ratioP1;P1;durP2;ratioP2;P2;SDS_P1;SDS_P2;PMS_P1;PMS_P2;Temp;Humidity;BMP_temperature;BMP_pressure;BME280_temperature;BME280_humidity;BME280_pressure;Samples;Min_cycle;Max_cycle;Signal;HPM_P1;HPM_P2
2021/10/19 00:00:11;;;;;;;;;;;13.90;99.90;;;;;;4992644;28;909;-49
2021/10/19 00:02:40;;;;;;;;;;;13.90;99.90;;;;;;4977837;28;1011;-48
2021/10/19 00:05:10;;;;;;;;;;;13.90;99.90;;;;;;4976455;28;849;-48
2021/10/19 00:07:37;;;;;;;;;;;13.90;99.90;;;;;;4977263;28;915;-48
2021/10/19 00:10:07;;;;;;;;;;;13.90;99.90;;;;;;4977246;28;805;-50
2021/10/19 00:12:34;;;;;;;;;;;13.90;99.90;;;;;;4977195;28;1903;-50
2021/10/19 00:15:00;;;;;;;;;;;13.90;99.90;;;;;;4984324;28;1399;-49
2021/10/19 00:17:26;;;;;;;;;;;13.90;99.90;;;;;;4996392;28;742;-49
2021/10/19 00:19:52;;;;;;;;;;;13.90;99.90;;;;;;4995872;28;937;-48
2021/10/19 00:22:18;;;;;;;;;;;13.90;99.90;;;;;;4996584;28;809;-49
2021/10/19 00:24:45;;;;;;;;;;;13.90;99.90;;;;;;4996798;28;909;-49
2021/10/19 00:27:12;;;;;;;;;;;13.90;99.90;;;;;;4996819;28;826;-50
2021/10/19 00:29:38;;;;;;;;;;;13.90;99.90;;;;;;4996497;28;904;-50
2021/10/19 00:32:05;;;;;;;;;;;13.90;99.90;;;;;;4996077;28;1910;-50
2021/10/19 00:34:31;;;;;;;;;;;13.90;99.90;;;;;;4996510;28;770;-50
2021/10/19 00:36:57;;;;;;;;;;;13.90;99.90;;;;;;4996873;28;902;-50
2021/10/19 00:39:23;;;;;;;;;;;13.80;99.90;;;;;;4996314;28;882;-49
2021/10/19 00:41:50;;;;;;;;;;;13.90;99.90;;;;;;4997467;28;995;-50
2021/10/19 00:44:20;;;;;;;;;;;13.90;99.90;;;;;;4997101;28;790;-50
2021/10/19 00:46:47;;;;;;;;;;;13.80;99.90;;;;;;4985312;28;1323;-50
2021/10/19 00:49:14;;;;;;;;;;;13.80;99.90;;;;;;4977490;28;801;-49
2021/10/19 00:51:42;;;;;;;;;;;13.80;99.90;;;;;;4976835;28;1902;-50
2021/10/19 00:54:09;;;;;;;;;;;13.80;99.90;;;;;;4979947;28;887;-50
2021/10/19 00:56:42;;;;;;;;;;;13.80;99.90;;;;;;4980899;28;857;-50
2021/10/19 00:59:09;;;;;;;;;;;13.80;99.90;;;;;;4980864;28;902;-50
2021/10/19 01:01:35;;;;;;;;;;;13.80;99.90;;;;;;4980248;28;897;-50
2021/10/19 01:04:01;;;;;;;;;;;13.80;99.90;;;;;;4981117;28;1129;-49
2021/10/19 01:06:27;;;;;;;;;;;13.80;99.90;;;;;;4980397;28;904;-50
2021/10/19 01:08:53;;;;;;;;;;;13.80;99.90;;;;;;4980015;28;986;-50
2021/10/19 01:11:21;;;;;;;;;;;13.80;99.90;;;;;;4980045;28;1902;-50
2021/10/19 01:13:48;;;;;;;;;;;13.80;99.90;;;;;;4979498;28;924;-50
2021/10/19 01:16:14;;;;;;;;;;;13.80;99.90;;;;;;4996623;28;1039;-49
2021/10/19 01:18:41;;;;;;;;;;;13.80;99.90;;;;;;4999439;28;880;-49
2021/10/19 01:21:07;;;;;;;;;;;13.80;99.90;;;;;;4999375;28;886;-50
2021/10/19 01:23:34;;;;;;;;;;;13.80;99.90;;;;;;4999838;28;877;-50
2021/10/19 01:26:03;;;;;;;;;;;13.80;99.90;;;;;;4999352;28;868;-50
2021/10/19 01:28:29;;;;;;;;;;;13.80;99.90;;;;;;4999537;28;879;-50
2021/10/19 01:30:58;;;;;;;;;;;13.80;99.90;;;;;;4999069;28;908;-50
2021/10/19 01:33:25;;;;;;;;;;;13.80;99.90;;;;;;4999466;28;1910;-49
2021/10/19 01:35:52;;;;;;;;;;;13.80;99.90;;;;;;4999396;28;884;-50
2021/10/19 01:38:21;;;;;;;;;;;13.80;99.90;;;;;;4999336;28;846;-50
2021/10/19 01:40:48;;;;;;;;;;;13.80;99.90;;;;;;4998240;28;746;-50
2021/10/19 01:43:20;;;;;;;;;;;13.80;99.90;;;;;;4999032;28;869;-50
2021/10/19 01:45:49;;;;;;;;;;;13.80;99.90;;;;;;5000235;28;830;-50
2021/10/19 01:48:15;;;;;;;;;;;13.80;99.90;;;;;;5013948;28;940;-49
2021/10/19 01:50:41;;;;;;;;;;;13.80;99.90;;;;;;4999107;28;864;-50
2021/10/19 01:53:07;;;;;;;;;;;13.80;99.90;;;;;;4998710;28;1907;-49
2021/10/19 01:55:34;;;;;;;;;;;13.80;99.90;;;;;;4999039;28;818;-50
2021/10/19 01:58:00;;;;;;;;;;;13.80;99.90;;;;;;4999003;28;751;-50
2021/10/19 02:00:26;;;;;;;;;;;13.80;99.90;;;;;;4998995;28;817;-50
2021/10/19 02:02:53;;;;;;;;;;;13.80;99.90;;;;;;4998737;28;858;-50
2021/10/19 02:05:20;;;;;;;;;;;13.80;99.90;;;;;;4998540;28;889;-50
2021/10/19 02:07:48;;;;;;;;;;;13.80;99.90;;;;;;4998751;28;806;-50
2021/10/19 02:10:15;;;;;;;;;;;13.80;99.90;;;;;;5013857;28;969;-50
2021/10/19 02:12:41;;;;;;;;;;;13.80;99.90;;;;;;4998389;28;1906;-50
2021/10/19 02:15:09;;;;;;;;;;;13.80;99.90;;;;;;4998954;28;1091;-50
2021/10/19 02:17:35;;;;;;;;;;;13.80;99.90;;;;;;4998293;28;916;-50
2021/10/19 02:20:02;;;;;;;;;;;13.80;99.90;;;;;;4995016;28;1531;-50
2021/10/19 02:22:28;;;;;;;;;;;13.80;99.90;;;;;;4987926;28;902;-50
2021/10/19 02:24:55;;;;;;;;;;;13.80;99.90;;;;;;4978923;28;1023;-50
2021/10/19 02:27:22;;;;;;;;;;;13.80;99.90;;;;;;4979317;28;802;-50
2021/10/19 02:29:49;;;;;;;;;;;13.70;99.90;;;;;;4979238;28;749;-50
2021/10/19 02:32:15;;;;;;;;;;;13.80;99.90;;;;;;4978615;28;1955;-50
2021/10/19 02:34:41;;;;;;;;;;;13.80;99.90;;;;;;4978909;28;814;-50
2021/10/19 02:37:07;;;;;;;;;;;13.80;99.90;;;;;;4979295;28;857;-50
2021/10/19 02:39:33;;;;;;;;;;;13.80;99.90;;;;;;4979337;28;1537;-51
2021/10/19 02:41:59;;;;;;;;;;;13.80;99.90;;;;;;4978609;28;1048;-50
2021/10/19 02:44:26;;;;;;;;;;;13.80;99.90;;;;;;4979364;28;979;-50
2021/10/19 02:46:53;;;;;;;;;;;13.80;99.90;;;;;;4989887;28;1503;-51
2021/10/19 02:49:20;;;;;;;;;;;13.80;99.90;;;;;;4990397;28;1176;-50
2021/10/19 02:51:46;;;;;;;;;;;13.80;99.90;;;;;;4997869;28;1910;-49
2021/10/19 02:54:12;;;;;;;;;;;13.80;99.90;;;;;;4996486;28;1231;-50
2021/10/19 02:56:38;;;;;;;;;;;13.80;99.90;;;;;;4997922;28;829;-50
2021/10/19 02:59:04;;;;;;;;;;;13.80;99.90;;;;;;4997507;28;878;-50
2021/10/19 03:01:31;;;;;;;;;;;13.80;99.90;;;;;;4997538;28;904;-50
2021/10/19 03:03:57;;;;;;;;;;;13.80;99.90;;;;;;4997796;28;758;-50
2021/10/19 03:06:24;;;;;;;;;;;13.80;99.90;;;;;;4997967;28;928;-50
2021/10/19 03:08:51;;;;;;;;;;;13.80;99.90;;;;;;4998015;28;892;-50
2021/10/19 03:11:18;;;;;;;;;;;13.80;99.90;;;;;;4997864;28;857;-50
2021/10/19 03:13:44;;;;;;;;;;;13.80;99.90;;;;;;5012610;28;1977;-50
2021/10/19 03:16:10;;;;;;;;;;;13.80;99.90;;;;;;4996114;28;1087;-50
2021/10/19 03:18:37;;;;;;;;;;;13.80;99.90;;;;;;4997146;28;758;-50
2021/10/19 03:21:05;;;;;;;;;;;13.80;99.90;;;;;;4998043;28;866;-50
2021/10/19 03:23:31;;;;;;;;;;;13.80;99.90;;;;;;4997381;28;919;-50
2021/10/19 03:25:58;;;;;;;;;;;13.80;99.90;;;;;;4997118;28;824;-50
2021/10/19 03:28:24;;;;;;;;;;;13.80;99.90;;;;;;4997852;28;941;-50
2021/10/19 03:30:49;;;;;;;;;;;13.80;99.90;;;;;;4996970;28;909;-50
2021/10/19 03:33:15;;;;;;;;;;;13.80;99.90;;;;;;4996879;28;1910;-49
2021/10/19 03:35:41;;;;;;;;;;;13.80;99.90;;;;;;4997236;28;908;-50
2021/10/19 03:38:08;;;;;;;;;;;13.80;99.90;;;;;;4997520;28;746;-50
2021/10/19 03:40:36;;;;;;;;;;;13.80;99.90;;;;;;4997250;28;806;-50
2021/10/19 03:43:04;;;;;;;;;;;13.80;99.90;;;;;;4997356;28;855;-50
2021/10/19 03:45:30;;;;;;;;;;;13.80;99.90;;;;;;4997540;28;821;-50
2021/10/19 03:47:56;;;;;;;;;;;13.80;99.90;;;;;;4995988;28;936;-50
2021/10/19 03:50:22;;;;;;;;;;;13.80;99.90;;;;;;4997035;28;822;-50
2021/10/19 03:52:48;;;;;;;;;;;13.80;99.90;;;;;;4996734;28;1910;-50
2021/10/19 03:55:14;;;;;;;;;;;13.80;99.90;;;;;;4996731;28;862;-50
2021/10/19 03:57:42;;;;;;;;;;;13.80;99.90;;;;;;4997081;28;872;-49
2021/10/19 04:00:09;;;;;;;;;;;13.80;99.90;;;;;;4996921;28;1092;-50
2021/10/19 04:02:37;;;;;;;;;;;13.80;99.90;;;;;;4996736;28;905;-50
2021/10/19 04:05:04;;;;;;;;;;;13.80;99.90;;;;;;4996909;28;1016;-50
2021/10/19 04:07:30;;;;;;;;;;;13.80;99.90;;;;;;4996927;28;877;-50
2021/10/19 04:09:56;;;;;;;;;;;13.80;99.90;;;;;;5014811;28;1132;-50
2021/10/19 04:12:22;;;;;;;;;;;13.80;99.90;;;;;;5014843;28;1977;-50
2021/10/19 04:14:48;;;;;;;;;;;13.80;99.90;;;;;;5015345;28;1189;-49
2021/10/19 04:17:16;;;;;;;;;;;13.80;99.90;;;;;;5014533;28;876;-49
2021/10/19 04:19:42;;;;;;;;;;;13.80;99.90;;;;;;5015036;28;1008;-49
2021/10/19 04:22:09;;;;;;;;;;;13.80;99.90;;;;;;5014603;28;863;-49
2021/10/19 04:24:36;;;;;;;;;;;13.80;99.90;;;;;;5014773;28;914;-49
2021/10/19 04:27:02;;;;;;;;;;;13.80;99.90;;;;;;5014602;28;1284;-49
2021/10/19 04:29:28;;;;;;;;;;;13.80;99.90;;;;;;5001988;28;1571;-49
2021/10/19 04:31:54;;;;;;;;;;;13.80;99.90;;;;;;5017821;28;1918;-49
2021/10/19 04:34:20;;;;;;;;;;;13.80;99.90;;;;;;5018161;28;821;-49
2021/10/19 04:36:46;;;;;;;;;;;13.80;99.90;;;;;;5018277;28;817;-49
2021/10/19 04:39:12;;;;;;;;;;;13.80;99.90;;;;;;5018476;28;830;-49
2021/10/19 04:41:44;;;;;;;;;;;13.80;99.90;;;;;;5004142;28;882;-49
2021/10/19 04:44:11;;;;;;;;;;;13.80;99.90;;;;;;5000427;28;809;-49
2021/10/19 04:46:40;;;;;;;;;;;13.80;99.90;;;;;;5000703;28;868;-49
2021/10/19 04:49:08;;;;;;;;;;;13.80;99.90;;;;;;4999859;28;977;-49
2021/10/19 04:51:35;;;;;;;;;;;13.80;99.90;;;;;;5000277;28;880;-49
2021/10/19 04:54:01;;;;;;;;;;;13.80;99.90;;;;;;5000101;28;1902;-49
2021/10/19 04:56:27;;;;;;;;;;;13.80;99.90;;;;;;5007068;28;1359;-49
2021/10/19 04:58:53;;;;;;;;;;;13.80;99.90;;;;;;4980636;28;784;-49
2021/10/19 05:01:19;;;;;;;;;;;13.80;99.90;;;;;;4979482;28;1032;-49
2021/10/19 05:03:46;;;;;;;;;;;13.80;99.90;;;;;;4980593;28;859;-49
2021/10/19 05:06:14;;;;;;;;;;;13.80;99.90;;;;;;4980718;28;955;-49
2021/10/19 05:08:40;;;;;;;;;;;13.80;99.90;;;;;;4980495;28;846;-49
2021/10/19 05:11:08;;;;;;;;;;;13.80;99.90;;;;;;4980683;28;893;-49
2021/10/19 05:13:34;;;;;;;;;;;13.80;99.90;;;;;;4980251;28;1902;-49
2021/10/19 05:16:02;;;;;;;;;;;13.80;99.90;;;;;;4995326;28;1166;-49
2021/10/19 05:18:28;;;;;;;;;;;13.80;99.90;;;;;;4999928;28;814;-49
2021/10/19 05:20:54;;;;;;;;;;;13.80;99.90;;;;;;4999871;28;862;-49
2021/10/19 05:23:20;;;;;;;;;;;13.80;99.90;;;;;;4999407;28;839;-49
2021/10/19 05:25:46;;;;;;;;;;;13.80;99.90;;;;;;4999898;28;871;-49
2021/10/19 05:28:13;;;;;;;;;;;13.90;99.90;;;;;;4999567;28;999;-49
2021/10/19 05:30:40;;;;;;;;;;;13.90;99.90;;;;;;4998678;28;894;-49
2021/10/19 05:33:08;;;;;;;;;;;13.90;99.90;;;;;;4999021;28;1898;-49
2021/10/19 05:35:34;;;;;;;;;;;13.90;99.90;;;;;;5001090;28;1697;-49
2021/10/19 05:38:00;;;;;;;;;;;13.90;99.90;;;;;;5037429;28;936;-49
2021/10/19 05:40:26;;;;;;;;;;;13.90;99.90;;;;;;5036032;28;817;-49
2021/10/19 05:42:52;;;;;;;;;;;13.90;99.90;;;;;;5036874;28;886;-49
2021/10/19 05:45:18;;;;;;;;;;;13.90;99.90;;;;;;5037697;28;817;-49
2021/10/19 05:47:46;;;;;;;;;;;13.90;99.90;;;;;;5036301;28;1026;-49
2021/10/19 05:50:14;;;;;;;;;;;13.90;99.90;;;;;;5036442;28;914;-49
2021/10/19 05:52:42;;;;;;;;;;;13.90;99.90;;;;;;5036318;28;1906;-49
2021/10/19 05:55:09;;;;;;;;;;;13.90;99.90;;;;;;5036179;28;1006;-49
2021/10/19 05:57:35;;;;;;;;;;;13.90;99.90;;;;;;5036619;28;853;-49
2021/10/19 06:00:03;;;;;;;;;;;13.90;99.90;;;;;;5020234;28;948;-49
2021/10/19 06:02:29;;;;;;;;;;;13.90;99.90;;;;;;5036333;28;790;-49
2021/10/19 06:04:55;;;;;;;;;;;13.90;99.90;;;;;;5036096;28;873;-50
2021/10/19 06:07:20;;;;;;;;;;;13.90;99.90;;;;;;5020424;28;876;-50
2021/10/19 06:09:47;;;;;;;;;;;13.90;99.90;;;;;;5002125;28;1073;-50
2021/10/19 06:12:14;;;;;;;;;;;13.90;99.90;;;;;;4998650;28;1903;-50
2021/10/19 06:14:42;;;;;;;;;;;13.90;99.90;;;;;;4999124;28;1305;-49
2021/10/19 06:17:09;;;;;;;;;;;13.90;99.90;;;;;;4998697;28;730;-49
2021/10/19 06:19:34;;;;;;;;;;;13.90;99.90;;;;;;4980992;28;1151;-49
2021/10/19 06:22:00;;;;;;;;;;;13.90;99.90;;;;;;4998595;28;869;-49
2021/10/19 06:24:27;;;;;;;;;;;13.90;99.90;;;;;;4998508;28;930;-49
2021/10/19 06:26:53;;;;;;;;;;;13.90;99.90;;;;;;4997476;28;949;-50
2021/10/19 06:29:19;;;;;;;;;;;13.90;99.90;;;;;;4998428;28;850;-50
2021/10/19 06:31:45;;;;;;;;;;;14.00;99.90;;;;;;4997956;28;862;-49
2021/10/19 06:34:12;;;;;;;;;;;13.90;99.90;;;;;;4998039;28;1915;-50
2021/10/19 06:36:41;;;;;;;;;;;13.90;99.90;;;;;;4997385;28;1291;-50
2021/10/19 06:39:07;;;;;;;;;;;13.90;99.90;;;;;;4998499;28;1029;-49
2021/10/19 06:41:34;;;;;;;;;;;14.00;99.90;;;;;;4998736;28;1118;-49
2021/10/19 06:44:00;;;;;;;;;;;14.00;99.90;;;;;;4998098;28;1030;-49
2021/10/19 06:46:26;;;;;;;;;;;14.00;99.90;;;;;;4997275;28;1484;-49
2021/10/19 06:48:52;;;;;;;;;;;14.00;99.90;;;;;;4998263;28;858;-49
2021/10/19 06:51:20;;;;;;;;;;;14.00;99.90;;;;;;4997829;28;770;-50
2021/10/19 06:53:46;;;;;;;;;;;14.00;99.90;;;;;;4997831;28;1914;-49
2021/10/19 06:56:12;;;;;;;;;;;14.00;99.90;;;;;;4998490;28;1017;-49
2021/10/19 06:58:39;;;;;;;;;;;14.00;99.90;;;;;;4997652;28;903;-49
2021/10/19 07:01:05;;;;;;;;;;;14.00;99.90;;;;;;5015924;28;933;-49
2021/10/19 07:03:34;;;;;;;;;;;14.00;99.90;;;;;;5015228;28;1048;-50
2021/10/19 07:06:05;;;;;;;;;;;14.00;99.90;;;;;;4987457;28;1424;-49
2021/10/19 07:08:33;;;;;;;;;;;14.00;99.90;;;;;;4996437;28;940;-50
2021/10/19 07:10:59;;;;;;;;;;;14.00;99.90;;;;;;4996268;28;879;-50
2021/10/19 07:13:25;;;;;;;;;;;14.00;99.90;;;;;;4996122;28;1966;-49
2021/10/19 07:15:55;;;;;;;;;;;14.00;99.90;;;;;;5009400;28;1286;-49
2021/10/19 07:18:22;;;;;;;;;;;14.00;99.90;;;;;;5015557;28;859;-48
2021/10/19 07:20:50;;;;;;;;;;;14.00;99.90;;;;;;5015419;28;895;-48
2021/10/19 07:23:16;;;;;;;;;;;13.90;99.90;;;;;;5016292;28;1294;-48
2021/10/19 07:25:44;;;;;;;;;;;14.00;99.90;;;;;;5015422;28;971;-48
2021/10/19 07:28:10;;;;;;;;;;;14.00;99.90;;;;;;5015209;28;793;-48
2021/10/19 07:30:36;;;;;;;;;;;14.00;99.90;;;;;;5015731;28;835;-48
2021/10/19 07:33:03;;;;;;;;;;;14.00;99.90;;;;;;4999072;28;1906;-49
2021/10/19 07:35:29;;;;;;;;;;;14.00;99.90;;;;;;4997824;28;806;-50
2021/10/19 07:37:54;;;;;;;;;;;14.00;99.90;;;;;;4997425;28;879;-49
2021/10/19 07:40:22;;;;;;;;;;;14.00;99.90;;;;;;4996984;28;837;-49
2021/10/19 07:42:49;;;;;;;;;;;14.00;99.90;;;;;;4997429;28;865;-49
2021/10/19 07:45:16;;;;;;;;;;;14.00;99.90;;;;;;5016032;28;832;-50
2021/10/19 07:47:45;;;;;;;;;;;14.00;99.90;;;;;;5014852;28;884;-49
2021/10/19 07:50:13;;;;;;;;;;;14.00;99.90;;;;;;5015320;28;774;-49
2021/10/19 07:52:40;;;;;;;;;;;14.00;99.90;;;;;;5014859;28;1910;-49
2021/10/19 07:55:06;;;;;;;;;;;14.00;99.90;;;;;;5015312;28;1146;-50
2021/10/19 07:57:40;;;;;;;;;;;14.00;99.90;;;;;;4998367;28;1240;-50
2021/10/19 08:00:07;;;;;;;;;;;14.00;99.90;;;;;;5015230;28;1042;-49
2021/10/19 08:02:33;;;;;;;;;;;14.00;99.90;;;;;;5015135;28;863;-49
2021/10/19 08:04:58;;;;;;;;;;;14.00;99.90;;;;;;5019022;28;801;-49
2021/10/19 08:07:24;;;;;;;;;;;14.00;99.90;;;;;;5018444;28;1431;-49
2021/10/19 08:09:52;;;;;;;;;;;14.10;99.90;;;;;;5015533;28;1074;-49
2021/10/19 08:12:18;;;;;;;;;;;14.00;99.90;;;;;;5018723;28;1906;-48
2021/10/19 08:14:45;;;;;;;;;;;14.00;99.90;;;;;;5009099;28;1225;-49
2021/10/19 08:17:10;;;;;;;;;;;14.00;99.90;;;;;;5017973;28;860;-49
2021/10/19 08:19:36;;;;;;;;;;;14.10;99.90;;;;;;5000466;28;835;-49
2021/10/19 08:22:02;;;;;;;;;;;14.10;99.90;;;;;;5000927;28;1126;-49
2021/10/19 08:24:28;;;;;;;;;;;14.10;99.90;;;;;;5000787;28;864;-50
2021/10/19 08:26:55;;;;;;;;;;;14.10;99.90;;;;;;4999426;28;1324;-49
2021/10/19 08:29:22;;;;;;;;;;;14.10;99.90;;;;;;5000662;28;927;-50
2021/10/19 08:31:49;;;;;;;;;;;14.10;99.90;;;;;;4997760;28;1424;-50
2021/10/19 08:34:15;;;;;;;;;;;14.10;99.90;;;;;;4999097;28;1966;-50
2021/10/19 08:36:42;;;;;;;;;;;14.10;99.90;;;;;;5000647;28;868;-49
2021/10/19 08:39:08;;;;;;;;;;;14.10;99.90;;;;;;4999554;28;1458;-49
2021/10/19 08:41:34;;;;;;;;;;;14.10;99.90;;;;;;5000460;28;944;-50
2021/10/19 08:44:00;;;;;;;;;;;14.10;99.90;;;;;;5000526;28;757;-49
2021/10/19 08:46:26;;;;;;;;;;;14.20;99.90;;;;;;5000675;28;854;-49
2021/10/19 08:48:53;;;;;;;;;;;14.20;99.90;;;;;;4999920;28;884;-50
2021/10/19 08:51:20;;;;;;;;;;;14.20;99.90;;;;;;5000433;28;1125;-49
2021/10/19 08:53:46;;;;;;;;;;;14.20;99.90;;;;;;5000713;28;1911;-49
2021/10/19 08:56:12;;;;;;;;;;;14.20;99.90;;;;;;5000155;28;889;-49
2021/10/19 08:58:40;;;;;;;;;;;14.20;99.90;;;;;;4999043;28;1306;-49
2021/10/19 09:01:07;;;;;;;;;;;14.20;99.90;;;;;;5000159;28;1043;-49
2021/10/19 09:03:33;;;;;;;;;;;14.20;99.90;;;;;;4996578;28;1271;-49
2021/10/19 09:06:00;;;;;;;;;;;14.20;99.90;;;;;;4999623;28;1009;-50
2021/10/19 09:08:27;;;;;;;;;;;14.20;99.90;;;;;;4998956;28;1185;-50
2021/10/19 09:10:54;;;;;;;;;;;14.20;99.90;;;;;;4999830;28;1094;-49
2021/10/19 09:13:22;;;;;;;;;;;14.30;99.90;;;;;;4999934;28;1977;-49
2021/10/19 09:15:50;;;;;;;;;;;14.20;99.90;;;;;;4999406;28;1079;-49
2021/10/19 09:18:20;;;;;;;;;;;14.20;99.90;;;;;;4999415;28;1409;-49
2021/10/19 09:20:48;;;;;;;;;;;14.30;99.90;;;;;;4999666;28;970;-49
2021/10/19 09:23:15;;;;;;;;;;;14.20;99.90;;;;;;4999618;28;838;-49
2021/10/19 09:25:43;;;;;;;;;;;14.20;99.90;;;;;;4999885;28;929;-49
2021/10/19 09:28:12;;;;;;;;;;;14.30;99.90;;;;;;4999428;28;1267;-50
2021/10/19 09:30:57;;;;;;;;;;;14.30;99.90;;;;;;4999542;28;861;-50
2021/10/19 09:33:25;;;;;;;;;;;14.30;99.90;;;;;;4998890;28;1894;-50
2021/10/19 09:35:51;;;;;;;;;;;14.30;99.90;;;;;;4998755;28;898;-50
2021/10/19 09:38:17;;;;;;;;;;;14.30;99.90;;;;;;4999094;28;1035;-51
2021/10/19 09:40:50;;;;;;;;;;;14.30;99.90;;;;;;4999339;28;826;-49
2021/10/19 09:43:18;;;;;;;;;;;14.30;99.90;;;;;;4999310;28;855;-49
2021/10/19 09:45:46;;;;;;;;;;;14.30;99.90;;;;;;5000063;28;783;-50
2021/10/19 09:48:15;;;;;;;;;;;14.30;99.90;;;;;;4998896;28;799;-49
2021/10/19 09:50:42;;;;;;;;;;;14.30;99.90;;;;;;4999216;28;758;-49
2021/10/19 09:53:14;;;;;;;;;;;14.40;99.90;;;;;;4998122;28;1965;-49
2021/10/19 09:55:41;;;;;;;;;;;14.40;99.90;;;;;;4999429;28;871;-50
2021/10/19 09:58:09;;;;;;;;;;;14.40;99.90;;;;;;4998078;28;845;-50
2021/10/19 10:00:37;;;;;;;;;;;14.40;99.90;;;;;;4999020;28;935;-50
2021/10/19 10:03:05;;;;;;;;;;;14.40;99.90;;;;;;4998478;28;845;-49
2021/10/19 10:05:32;;;;;;;;;;;14.40;99.90;;;;;;4999117;28;845;-49
2021/10/19 10:07:59;;;;;;;;;;;14.40;99.90;;;;;;4998826;28;814;-49
2021/10/19 10:10:26;;;;;;;;;;;14.40;99.90;;;;;;4998819;28;946;-49
2021/10/19 10:13:03;;;;;;;;;;;14.40;99.90;;;;;;4998839;28;1959;-49
2021/10/19 10:15:35;;;;;;;;;;;14.40;99.90;;;;;;4999145;28;1214;-50
2021/10/19 10:18:04;;;;;;;;;;;14.40;99.90;;;;;;5013359;28;983;-50
2021/10/19 10:20:49;;;;;;;;;;;14.40;99.90;;;;;;4998732;28;803;-49
2021/10/19 10:23:19;;;;;;;;;;;14.40;99.90;;;;;;4998549;28;990;-50
2021/10/19 10:25:46;;;;;;;;;;;14.40;99.90;;;;;;4997965;28;1129;-50
2021/10/19 10:28:16;;;;;;;;;;;14.40;99.90;;;;;;4998683;28;1139;-49
2021/10/19 10:30:45;;;;;;;;;;;14.40;99.90;;;;;;4998309;28;936;-49
2021/10/19 10:33:12;;;;;;;;;;;14.50;99.90;;;;;;4998024;28;1961;-49
2021/10/19 10:35:43;;;;;;;;;;;14.40;99.90;;;;;;4998516;28;870;-48
2021/10/19 10:38:11;;;;;;;;;;;14.50;99.90;;;;;;4998222;28;991;-48
2021/10/19 10:40:42;;;;;;;;;;;14.40;99.90;;;;;;4998168;28;871;-48
2021/10/19 10:43:16;;;;;;;;;;;14.50;99.90;;;;;;4998591;28;1074;-49
2021/10/19 10:45:45;;;;;;;;;;;14.50;99.90;;;;;;4998649;28;937;-49
2021/10/19 10:48:15;;;;;;;;;;;14.40;99.90;;;;;;4997630;28;747;-49
2021/10/19 10:50:42;;;;;;;;;;;14.50;99.90;;;;;;4997799;28;818;-50
2021/10/19 10:53:11;;;;;;;;;;;14.40;99.90;;;;;;4998432;28;1969;-50
2021/10/19 10:55:41;;;;;;;;;;;14.40;99.90;;;;;;4995306;28;1434;-50
2021/10/19 10:58:08;;;;;;;;;;;14.50;99.90;;;;;;4978786;28;869;-49
2021/10/19 11:00:36;;;;;;;;;;;14.40;99.90;;;;;;4978382;28;837;-49
2021/10/19 11:03:14;;;;;;;;;;;14.50;99.90;;;;;;4977932;28;770;-49
2021/10/19 11:05:55;;;;;;;;;;;14.50;99.90;;;;;;4978380;28;897;-49
2021/10/19 11:11:37;;;;;;;;;;;14.40;99.90;;;;;;5040620;23;2300;-47
2021/10/19 11:14:04;;;;;;;;;;;14.50;99.90;;;;;;4997208;28;1973;-47
2021/10/19 11:16:32;;;;;;;;;;;14.50;99.90;;;;;;4988615;28;1260;-47
2021/10/19 11:18:59;;;;;;;;;;;14.50;99.90;;;;;;4976574;28;810;-47
2021/10/19 11:21:25;;;;;;;;;;;14.50;99.90;;;;;;4977000;28;890;-47
2021/10/19 11:23:52;;;;;;;;;;;14.50;99.90;;;;;;4977874;28;920;-47
2021/10/19 11:26:19;;;;;;;;;;;14.50;99.90;;;;;;4977462;28;847;-47
2021/10/19 11:28:45;;;;;;;;;;;14.50;99.90;;;;;;4987250;28;1158;-48
2021/10/19 11:31:12;;;;;;;;;;;14.50;99.90;;;;;;4995981;28;936;-48
2021/10/19 11:33:39;;;;;;;;;;;14.60;99.90;;;;;;4997227;28;1906;-48
2021/10/19 11:36:05;;;;;;;;;;;14.60;99.90;;;;;;4997309;28;956;-48
2021/10/19 11:38:32;;;;;;;;;;;14.60;99.90;;;;;;4996400;28;877;-48
2021/10/19 11:41:08;;;;;;;;;;;14.60;99.90;;;;;;4996566;28;890;-48
2021/10/19 11:43:39;;;;;;;;;;;14.60;99.90;;;;;;4997175;28;853;-47
2021/10/19 11:46:06;;;;;;;;;;;14.60;99.90;;;;;;4997232;28;937;-47
2021/10/19 11:48:32;;;;;;;;;;;14.60;99.90;;;;;;4997156;28;994;-48
2021/10/19 11:50:58;;;;;;;;;;;14.60;99.90;;;;;;4997091;28;903;-48
2021/10/19 11:53:24;;;;;;;;;;;14.70;99.90;;;;;;4996984;28;1887;-47
2021/10/19 11:55:54;;;;;;;;;;;14.60;99.90;;;;;;4996661;28;822;-48
2021/10/19 11:58:23;;;;;;;;;;;14.70;99.90;;;;;;4997075;28;966;-48
2021/10/19 12:00:53;;;;;;;;;;;14.70;99.90;;;;;;4996947;28;975;-47
2021/10/19 12:03:27;;;;;;;;;;;14.70;99.90;;;;;;4996897;28;843;-47
2021/10/19 12:05:55;;;;;;;;;;;14.70;99.90;;;;;;4996736;28;1361;-47
2021/10/19 12:08:27;;;;;;;;;;;14.70;99.90;;;;;;4996874;28;774;-47
2021/10/19 12:10:54;;;;;;;;;;;14.70;99.90;;;;;;4996346;28;1137;-48
2021/10/19 12:13:25;;;;;;;;;;;14.70;99.90;;;;;;4996836;28;1902;-47
2021/10/19 12:15:54;;;;;;;;;;;14.70;99.90;;;;;;4997173;28;864;-47
2021/10/19 12:18:20;;;;;;;;;;;14.70;99.90;;;;;;4997077;28;838;-47
2021/10/19 12:20:48;;;;;;;;;;;14.70;99.90;;;;;;4997009;28;920;-47
2021/10/19 12:23:16;;;;;;;;;;;14.70;99.90;;;;;;5011816;28;946;-47
2021/10/19 12:26:03;;;;;;;;;;;14.70;99.90;;;;;;4996831;28;1049;-48
2021/10/19 12:28:29;;;;;;;;;;;14.70;99.90;;;;;;4996829;28;739;-48
2021/10/19 12:30:57;;;;;;;;;;;14.70;99.90;;;;;;4996782;28;802;-47
2021/10/19 12:33:24;;;;;;;;;;;14.70;99.90;;;;;;4996709;28;1906;-47
2021/10/19 12:36:00;;;;;;;;;;;14.70;99.90;;;;;;4995676;28;809;-47
2021/10/19 12:38:31;;;;;;;;;;;14.70;99.90;;;;;;4996434;28;909;-47
2021/10/19 12:41:05;;;;;;;;;;;14.80;99.90;;;;;;4996762;28;810;-48
2021/10/19 12:43:31;;;;;;;;;;;14.80;99.90;;;;;;4995868;28;767;-48
2021/10/19 12:45:59;;;;;;;;;;;14.80;99.90;;;;;;4995356;28;1363;-48
2021/10/19 12:48:32;;;;;;;;;;;14.80;99.90;;;;;;4996019;28;1062;-47
2021/10/19 12:51:02;;;;;;;;;;;14.80;99.90;;;;;;4999345;28;863;-47
2021/10/19 12:53:28;;;;;;;;;;;14.80;99.90;;;;;;4999911;28;1951;-47
2021/10/19 12:55:56;;;;;;;;;;;14.80;99.90;;;;;;4983806;28;1359;-47
2021/10/19 12:58:25;;;;;;;;;;;14.80;99.90;;;;;;4979666;28;821;-47
2021/10/19 13:00:52;;;;;;;;;;;14.80;99.90;;;;;;4980541;28;841;-47
2021/10/19 13:03:18;;;;;;;;;;;14.80;99.90;;;;;;4980361;28;814;-47
2021/10/19 13:05:45;;;;;;;;;;;14.80;99.90;;;;;;4993504;28;1206;-48
2021/10/19 13:08:11;;;;;;;;;;;14.80;99.90;;;;;;4999561;28;874;-48
2021/10/19 13:10:37;;;;;;;;;;;14.80;99.90;;;;;;4999253;28;1307;-48
2021/10/19 13:13:03;;;;;;;;;;;14.80;99.90;;;;;;5000042;28;1907;-48
2021/10/19 13:15:29;;;;;;;;;;;14.80;99.90;;;;;;4999553;28;1849;-47
2021/10/19 13:17:56;;;;;;;;;;;14.80;99.90;;;;;;5000257;28;976;-47
2021/10/19 13:20:23;;;;;;;;;;;14.80;99.90;;;;;;4999725;28;810;-48
2021/10/19 13:22:52;;;;;;;;;;;14.80;99.90;;;;;;4999978;28;841;-48
2021/10/19 13:25:18;;;;;;;;;;;14.80;99.90;;;;;;4999122;28;921;-48
2021/10/19 13:27:44;;;;;;;;;;;14.80;99.90;;;;;;4999233;28;1120;-47
2021/10/19 13:30:10;;;;;;;;;;;14.80;99.90;;;;;;4999317;28;802;-48
2021/10/19 13:32:36;;;;;;;;;;;14.80;99.90;;;;;;4998243;28;1103;-47
2021/10/19 13:35:02;;;;;;;;;;;14.80;99.90;;;;;;4999867;28;1977;-47
2021/10/19 13:37:29;;;;;;;;;;;14.80;99.90;;;;;;4999498;28;788;-47
2021/10/19 13:39:58;;;;;;;;;;;14.80;99.90;;;;;;4998410;28;925;-48
2021/10/19 13:42:26;;;;;;;;;;;14.80;99.90;;;;;;4999365;28;885;-47
2021/10/19 13:44:53;;;;;;;;;;;14.80;99.90;;;;;;4999383;28;802;-47
2021/10/19 13:47:19;;;;;;;;;;;14.80;99.90;;;;;;4999213;28;911;-47
2021/10/19 13:49:45;;;;;;;;;;;14.80;99.90;;;;;;4998984;28;758;-47
2021/10/19 13:52:11;;;;;;;;;;;14.80;99.90;;;;;;4998932;28;884;-48
2021/10/19 13:54:39;;;;;;;;;;;14.90;99.90;;;;;;4999107;28;1970;-48
2021/10/19 13:57:08;;;;;;;;;;;14.80;99.90;;;;;;4998743;28;777;-48
2021/10/19 13:59:35;;;;;;;;;;;14.80;99.90;;;;;;4999496;28;825;-48
2021/10/19 14:02:01;;;;;;;;;;;14.80;99.90;;;;;;4998046;28;901;-48
2021/10/19 14:04:28;;;;;;;;;;;14.80;99.90;;;;;;4998596;28;1153;-48
2021/10/19 14:06:56;;;;;;;;;;;14.80;99.90;;;;;;4998485;28;944;-48
2021/10/19 14:09:25;;;;;;;;;;;14.80;99.90;;;;;;4998905;28;841;-48
2021/10/19 14:11:52;;;;;;;;;;;14.80;99.90;;;;;;4978984;28;1370;-48
2021/10/19 14:14:18;;;;;;;;;;;14.80;99.90;;;;;;4979513;28;1979;-48
2021/10/19 14:16:44;;;;;;;;;;;14.80;99.90;;;;;;4979046;28;838;-48
2021/10/19 14:19:11;;;;;;;;;;;14.90;99.90;;;;;;4979196;28;786;-48
2021/10/19 14:21:38;;;;;;;;;;;14.90;99.90;;;;;;4979354;28;897;-47
2021/10/19 14:24:05;;;;;;;;;;;14.90;99.90;;;;;;4977954;28;863;-47
2021/10/19 14:26:31;;;;;;;;;;;14.90;99.90;;;;;;4978656;28;1026;-47
2021/10/19 14:28:59;;;;;;;;;;;14.90;99.90;;;;;;4978745;28;879;-47
2021/10/19 14:31:26;;;;;;;;;;;14.90;99.90;;;;;;4979284;28;829;-47
2021/10/19 14:33:53;;;;;;;;;;;14.90;99.90;;;;;;4978608;28;1975;-47
2021/10/19 14:36:20;;;;;;;;;;;14.90;99.90;;;;;;4978964;28;839;-47
2021/10/19 14:38:47;;;;;;;;;;;14.90;99.90;;;;;;4977659;28;856;-47
2021/10/19 14:41:13;;;;;;;;;;;14.90;99.90;;;;;;4993034;28;927;-47